Time;durP1;ratioP1;P1;durP2;ratioP2;P2;SDS_P1;SDS_P2;PMS_P1;PMS_P2;Temp;Humidity;BMP_temperature;BMP_pressure;BME280_temperature;BME280_humidity;BME280_pressure;Samples;Min_cycle;Max_cycle;Signal;HPM_P1;HPM_P2
2022/08/04 00:00:09;;;;;;;6.85;2.63;;;23.60;64.50;;;;;;5072645;28;20051;-40
2022/08/04 00:03:01;;;;;;;7.97;2.10;;;23.50;64.70;;;;;;5072875;28;20043;-38
2022/08/04 00:05:52;;;;;;;11.57;2.53;;;23.50;64.80;;;;;;5065940;28;20036;-39
2022/08/04 00:08:40;;;;;;;7.15;2.20;;;23.40;64.80;;;;;;5072192;28;20032;-39
2022/08/04 00:11:08;;;;;;;6.32;2.40;;;23.40;65.00;;;;;;5071325;28;20121;-38
2022/08/04 00:13:38;;;;;;;8.20;1.95;;;23.40;65.10;;;;;;5055406;28;20063;-39
2022/08/04 00:16:07;;;;;;;6.55;1.98;;;23.40;64.90;;;;;;5072536;28;20127;-40
2022/08/04 00:18:34;;;;;;;7.33;2.40;;;23.30;65.20;;;;;;5072480;28;20570;-39
2022/08/04 00:21:05;;;;;;;6.50;2.38;;;23.30;65.30;;;;;;5072861;28;20027;-40
2022/08/04 00:23:34;;;;;;;5.68;1.75;;;23.30;65.50;;;;;;5073417;28;20081;-38
2022/08/04 00:26:00;;;;;;;7.00;1.80;;;23.30;65.50;;;;;;5076463;28;20158;-39
2022/08/04 00:28:27;;;;;;;4.95;2.10;;;23.30;65.30;;;;;;5076298;28;20028;-38
2022/08/04 00:30:53;;;;;;;12.00;3.03;;;23.30;65.40;;;;;;5075098;28;20034;-39
2022/08/04 00:33:20;;;;;;;6.88;2.25;;;23.30;65.50;;;;;;5076047;28;20036;-38
2022/08/04 00:35:48;;;;;;;7.95;3.17;;;23.30;65.40;;;;;;5074764;28;20050;-38
2022/08/04 00:38:18;;;;;;;14.52;2.53;;;23.30;65.40;;;;;;5076160;28;20055;-39
2022/08/04 00:41:07;;;;;;;7.90;1.83;;;23.30;65.40;;;;;;5076266;28;20353;-40
2022/08/04 00:43:38;;;;;;;8.25;2.00;;;23.20;65.40;;;;;;5076152;28;20028;-38
2022/08/04 00:46:21;;;;;;;3.90;1.58;;;23.20;65.40;;;;;;5075112;28;20040;-38
2022/08/04 00:49:05;;;;;;;11.93;3.20;;;23.20;65.30;;;;;;5076562;28;20096;-38
2022/08/04 00:51:39;;;;;;;10.57;2.28;;;23.20;65.20;;;;;;5075726;28;20060;-38
2022/08/04 00:54:10;;;;;;;3.75;2.13;;;23.30;65.10;;;;;;5075698;28;20060;-39
2022/08/04 00:56:38;;;;;;;11.25;2.50;;;23.20;65.10;;;;;;5075570;28;20065;-39
2022/08/04 00:59:35;;;;;;;5.25;2.60;;;23.30;65.10;;;;;;5075627;28;20031;-39
2022/08/04 01:02:49;;;;;;;17.60;3.45;;;23.20;65.10;;;;;;5075769;28;20082;-41
2022/08/04 01:05:32;;;;;;;7.15;2.45;;;23.30;65.10;;;;;;5075602;28;20025;-39
2022/08/04 01:08:38;;;;;;;7.90;2.30;;;23.20;65.10;;;;;;5075633;28;20469;-38
2022/08/04 01:11:07;;;;;;;7.38;2.60;;;23.20;65.20;;;;;;5073834;28;20025;-38
2022/08/04 01:13:45;;;;;;;8.82;2.20;;;23.10;65.30;;;;;;5075183;28;20055;-38
2022/08/04 01:16:15;;;;;;;7.63;2.20;;;23.20;65.40;;;;;;5075300;28;20021;-38
2022/08/04 01:19:02;;;;;;;16.05;2.70;;;23.20;65.40;;;;;;5075064;28;20099;-39
2022/08/04 01:21:58;;;;;;;12.25;2.22;;;23.20;65.30;;;;;;5073499;28;20021;-39
2022/08/04 01:24:39;;;;;;;6.18;2.65;;;23.10;65.30;;;;;;5075319;28;20013;-39
2022/08/04 01:27:10;;;;;;;12.80;2.70;;;23.10;65.60;;;;;;5074986;28;20085;-39
2022/08/04 01:29:48;;;;;;;13.00;4.25;;;23.10;65.40;;;;;;5075005;28;20483;-38
2022/08/04 01:32:36;;;;;;;10.45;2.95;;;23.10;65.50;;;;;;5057986;28;20032;-38
2022/08/04 01:35:48;;;;;;;9.73;2.63;;;23.10;65.60;;;;;;5073423;28;20032;-39
2022/08/04 01:38:21;;;;;;;10.95;3.22;;;23.20;65.40;;;;;;5046541;28;20046;-37
2022/08/04 01:40:50;;;;;;;13.63;2.80;;;23.00;65.70;;;;;;5074745;28;20043;-39
2022/08/04 01:43:16;;;;;;;15.40;3.63;;;23.10;65.40;;;;;;5074785;28;20025;-41
2022/08/04 01:45:50;;;;;;;6.70;2.70;;;23.10;65.40;;;;;;5073421;28;20037;-38
2022/08/04 01:48:22;;;;;;;8.20;2.55;;;23.00;65.70;;;;;;5073418;28;20020;-39
2022/08/04 01:50:55;;;;;;;9.38;2.72;;;23.00;65.90;;;;;;5074945;28;20063;-38
2022/08/04 01:53:27;;;;;;;16.85;3.03;;;22.90;66.10;;;;;;5074678;28;20020;-40
2022/08/04 01:55:55;;;;;;;14.32;3.08;;;22.90;66.10;;;;;;5074787;28;20017;-38
2022/08/04 01:58:22;;;;;;;6.97;3.42;;;22.90;66.10;;;;;;5074613;28;20190;-38
2022/08/04 02:01:02;;;;;;;6.97;2.00;;;22.90;66.20;;;;;;5074629;28;20426;-40
2022/08/04 02:03:29;;;;;;;11.40;4.13;;;22.90;66.30;;;;;;5074667;28;20356;-39
2022/08/04 02:06:03;;;;;;;8.25;2.47;;;22.90;66.20;;;;;;5074668;28;20019;-39
2022/08/04 02:09:07;;;;;;;9.63;2.13;;;22.80;66.40;;;;;;5074483;28;20039;-39
2022/08/04 02:11:33;;;;;;;11.80;3.55;;;22.90;66.30;;;;;;5065104;28;20044;-39
2022/08/04 02:14:07;;;;;;;7.00;2.92;;;22.90;66.40;;;;;;5074289;28;20028;-39
2022/08/04 02:16:36;;;;;;;7.75;2.40;;;23.00;66.10;;;;;;5074221;28;20024;-39
2022/08/04 02:19:28;;;;;;;11.45;2.83;;;22.90;66.20;;;;;;5075108;28;20032;-39
2022/08/04 02:22:06;;;;;;;12.07;3.28;;;22.80;66.40;;;;;;5073015;28;20031;-43
2022/08/04 02:24:32;;;;;;;12.82;3.13;;;22.80;66.60;;;;;;5074335;28;20016;-39
2022/08/04 02:27:00;;;;;;;13.40;4.50;;;22.80;66.60;;;;;;5074296;28;20483;-39
2022/08/04 02:29:52;;;;;;;14.60;3.25;;;22.80;66.50;;;;;;5074811;28;20376;-39
2022/08/04 02:32:26;;;;;;;13.93;3.67;;;22.80;66.50;;;;;;5067775;28;20110;-39
2022/08/04 02:35:10;;;;;;;12.50;3.13;;;22.80;66.60;;;;;;5075114;28;20028;-39
2022/08/04 02:37:36;;;;;;;10.80;3.28;;;22.80;66.50;;;;;;5074635;28;20052;-39
2022/08/04 02:40:05;;;;;;;14.27;3.67;;;22.80;66.60;;;;;;5074420;28;20031;-40
2022/08/04 02:42:33;;;;;;;9.38;3.13;;;22.90;66.40;;;;;;5074978;28;20021;-39
2022/08/04 02:45:00;;;;;;;6.40;3.13;;;22.80;66.40;;;;;;5073903;28;20437;-42
2022/08/04 02:47:28;;;;;;;6.43;3.20;;;22.90;66.60;;;;;;5073622;28;20020;-39
2022/08/04 02:49:57;;;;;;;8.77;3.10;;;22.90;66.50;;;;;;5074640;28;20086;-39
2022/08/04 02:52:24;;;;;;;9.05;4.10;;;22.80;66.60;;;;;;5075050;28;20487;-39
2022/08/04 02:54:54;;;;;;;8.52;3.17;;;22.90;66.60;;;;;;5074898;28;20028;-44
2022/08/04 02:57:25;;;;;;;11.05;3.67;;;22.80;66.80;;;;;;5074630;28;20126;-40
2022/08/04 03:00:14;;;;;;;13.65;3.47;;;22.80;66.70;;;;;;5074679;28;20039;-39
2022/08/04 03:03:01;;;;;;;8.15;2.83;;;22.80;67.00;;;;;;5072739;28;20024;-39
2022/08/04 03:05:36;;;;;;;7.93;3.28;;;22.80;67.30;;;;;;5075289;28;20070;-39
2022/08/04 03:08:30;;;;;;;7.88;3.45;;;22.90;66.90;;;;;;5074810;28;20043;-39
2022/08/04 03:11:14;;;;;;;7.47;2.53;;;22.80;66.90;;;;;;5074586;28;20066;-38
2022/08/04 03:14:16;;;;;;;11.82;3.45;;;22.80;67.20;;;;;;5074609;28;20113;-39
2022/08/04 03:17:18;;;;;;;9.63;3.70;;;22.80;67.30;;;;;;5073542;28;20070;-39
2022/08/04 03:20:12;;;;;;;7.95;2.97;;;22.80;67.40;;;;;;5073686;28;20100;-38
2022/08/04 03:23:02;;;;;;;9.63;3.28;;;22.70;67.90;;;;;;5073169;28;20496;-40
2022/08/04 03:25:40;;;;;;;;;;;22.50;68.10;;;;;;5073660;28;20384;-39
2022/08/04 03:28:36;;;;;;;10.75;3.42;;;22.40;68.40;;;;;;5073301;28;19904;-39
2022/08/04 03:31:05;;;;;;;10.18;3.90;;;22.30;68.90;;;;;;5072947;28;20380;-39
2022/08/04 03:33:44;;;;;;;17.60;3.40;;;22.30;69.00;;;;;;5072931;28;20028;-38
2022/08/04 03:36:26;;;;;;;14.85;3.80;;;22.30;69.10;;;;;;5073171;28;20020;-39
2022/08/04 03:39:08;;;;;;;13.60;3.72;;;22.30;69.30;;;;;;5073176;28;20189;-39
2022/08/04 03:41:54;;;;;;;9.05;3.17;;;22.20;69.50;;;;;;5073161;28;20021;-40
2022/08/04 19:35:40;;;;;;;5.35;2.97;;;25.10;67.40;;;;;;5070580;27;20444;-46
2022/08/04 19:38:09;;;;;;;3.95;2.88;;;25.10;67.60;;;;;;5070907;28;20116;-49
2022/08/04 19:40:37;;;;;;;8.48;2.90;;;25.10;67.50;;;;;;5070232;28;20048;-47
2022/08/04 19:43:03;;;;;;;12.63;4.20;;;25.10;67.50;;;;;;5070764;28;20522;-49
2022/08/04 19:45:28;;;;;;;9.63;4.80;;;25.10;67.60;;;;;;5071003;28;20024;-48
2022/08/04 19:47:54;;;;;;;9.88;4.82;;;25.00;67.80;;;;;;5070466;28;20199;-45
2022/08/04 19:50:20;;;;;;;5.15;3.38;;;25.00;67.90;;;;;;5070192;28;20469;-47
2022/08/04 19:52:45;;;;;;;8.30;3.33;;;25.00;68.10;;;;;;5070585;28;20025;-48
2022/08/04 19:55:11;;;;;;;7.07;3.67;;;24.90;68.10;;;;;;5068751;28;20028;-47
2022/08/04 19:57:42;;;;;;;10.48;4.10;;;24.90;68.30;;;;;;5069771;28;20029;-50
2022/08/04 20:00:09;;;;;;;9.48;3.72;;;24.80;68.40;;;;;;5068453;28;20021;-46
2022/08/04 20:02:35;;;;;;;5.18;3.00;;;24.90;68.50;;;;;;5068296;28;20027;-47
2022/08/04 20:05:01;;;;;;;7.85;4.65;;;24.90;68.50;;;;;;5069573;28;20461;-45
2022/08/04 20:07:26;;;;;;;5.53;3.05;;;24.90;68.60;;;;;;5069488;28;20155;-46
2022/08/04 20:09:52;;;;;;;10.98;3.38;;;24.80;68.50;;;;;;5069811;28;20039;-47
2022/08/04 20:12:18;;;;;;;10.75;3.95;;;24.80;68.80;;;;;;5069663;28;20070;-46
2022/08/04 20:14:44;;;;;;;8.57;3.40;;;24.70;69.10;;;;;;5069319;28;20468;-51
2022/08/04 20:17:10;;;;;;;8.70;3.63;;;24.60;69.30;;;;;;5069601;28;20499;-50
2022/08/04 20:19:35;;;;;;;9.13;4.00;;;24.50;69.60;;;;;;5069302;28;20020;-46
2022/08/04 20:22:01;;;;;;;6.25;4.15;;;24.50;69.70;;;;;;5069822;28;20100;-46
2022/08/04 20:24:27;;;;;;;10.32;3.72;;;24.50;70.00;;;;;;5069327;28;20028;-47
2022/08/04 20:26:53;;;;;;;10.20;4.63;;;24.50;69.90;;;;;;5069537;28;20108;-48
2022/08/04 20:29:18;;;;;;;8.35;4.22;;;24.40;70.10;;;;;;5069274;28;20025;-46
2022/08/04 20:31:44;;;;;;;7.72;3.70;;;24.50;70.00;;;;;;5069406;28;20423;-48
2022/08/04 20:34:09;;;;;;;3.60;2.70;;;24.40;69.90;;;;;;5067508;28;20053;-46
2022/08/04 20:36:35;;;;;;;6.75;3.08;;;24.40;69.10;;;;;;5069107;28;20025;-45
2022/08/04 20:39:01;;;;;;;5.35;3.17;;;24.40;69.00;;;;;;5069207;28;20017;-47
2022/08/04 20:41:26;;;;;;;4.82;2.63;;;24.40;68.60;;;;;;5069056;28;20024;-47
2022/08/04 20:43:52;;;;;;;6.13;2.45;;;24.30;68.40;;;;;;5068985;28;20053;-51
2022/08/04 20:46:19;;;;;;;4.53;2.70;;;24.30;68.10;;;;;;5058285;28;20500;-46
2022/08/04 20:48:45;;;;;;;7.30;2.40;;;24.30;67.90;;;;;;5054780;28;20025;-46
2022/08/04 20:51:16;;;;;;;5.10;2.30;;;24.30;68.10;;;;;;5055514;28;20029;-45
2022/08/04 20:53:42;;;;;;;8.27;3.72;;;24.30;67.90;;;;;;5055794;28;20029;-45
2022/08/04 20:56:07;;;;;;;3.83;3.10;;;24.20;68.10;;;;;;5055758;28;20516;-47
2022/08/04 20:58:33;;;;;;;7.65;3.00;;;24.20;68.40;;;;;;5055519;28;20021;-46
2022/08/04 21:00:59;;;;;;;4.93;3.20;;;24.20;67.20;;;;;;5055806;28;20021;-47
2022/08/04 21:03:24;;;;;;;4.10;2.60;;;24.20;67.10;;;;;;5054054;28;20025;-46
2022/08/04 21:05:52;;;;;;;4.57;2.40;;;24.00;67.10;;;;;;5055413;28;20029;-50
2022/08/04 21:08:18;;;;;;;4.65;1.92;;;24.00;66.90;;;;;;5055349;28;20024;-48
2022/08/04 21:10:43;;;;;;;3.60;2.55;;;24.00;67.10;;;;;;5055342;28;20025;-46
2022/08/04 21:13:10;;;;;;;3.63;2.63;;;23.90;67.30;;;;;;5055509;28;20021;-50
2022/08/04 21:15:36;;;;;;;3.72;2.58;;;23.90;66.60;;;;;;5054143;28;20024;-49
2022/08/04 21:18:01;;;;;;;4.38;2.08;;;23.90;66.40;;;;;;5055495;28;20044;-47
2022/08/04 21:20:27;;;;;;;4.63;2.20;;;23.80;66.20;;;;;;5054022;28;20393;-47
2022/08/04 21:22:52;;;;;;;2.05;1.70;;;23.80;65.50;;;;;;5055665;28;20029;-47
2022/08/04 21:25:18;;;;;;;2.63;1.65;;;23.80;64.50;;;;;;5055460;28;20357;-47
2022/08/04 21:27:44;;;;;;;3.85;2.60;;;23.60;64.20;;;;;;5055035;28;20362;-46
2022/08/04 21:30:12;;;;;;;3.00;1.88;;;23.60;64.00;;;;;;5055530;28;20063;-49
2022/08/04 21:32:38;;;;;;;2.35;1.50;;;23.60;64.00;;;;;;5055758;28;20029;-48
2022/08/04 21:35:04;;;;;;;4.40;2.08;;;23.50;63.90;;;;;;5055905;28;20049;-47
2022/08/04 21:37:29;;;;;;;1.63;1.50;;;23.50;63.90;;;;;;5056648;28;20079;-52
2022/08/04 21:39:55;;;;;;;4.30;1.77;;;23.50;63.70;;;;;;5054892;28;20025;-46
2022/08/04 21:42:21;;;;;;;6.97;1.70;;;23.40;63.70;;;;;;5056355;28;20404;-47
2022/08/04 21:44:46;;;;;;;3.00;1.42;;;23.40;63.50;;;;;;5056759;28;20426;-47
2022/08/04 21:47:13;;;;;;;5.55;2.38;;;23.40;63.50;;;;;;5056245;28;20071;-46
2022/08/04 21:49:39;;;;;;;2.80;1.65;;;23.40;63.40;;;;;;5054432;28;20098;-46
2022/08/04 21:52:05;;;;;;;4.07;1.45;;;23.40;62.90;;;;;;5056392;28;20500;-48
2022/08/04 21:54:30;;;;;;;10.15;2.08;;;23.40;63.00;;;;;;5055354;28;20061;-47
2022/08/04 21:56:56;;;;;;;3.25;1.65;;;23.30;63.00;;;;;;5053355;28;20021;-46
2022/08/04 21:59:22;;;;;;;3.53;1.70;;;23.40;63.00;;;;;;5054829;28;20025;-48
2022/08/04 22:01:48;;;;;;;2.30;1.65;;;23.30;62.90;;;;;;5054939;28;20112;-47
2022/08/04 22:04:13;;;;;;;4.00;1.48;;;23.30;63.10;;;;;;5054528;28;20531;-47
2022/08/04 22:06:39;;;;;;;3.42;1.92;;;23.30;63.10;;;;;;5054824;28;20044;-48
2022/08/04 22:09:05;;;;;;;4.65;1.75;;;23.30;63.20;;;;;;5054979;28;20497;-47
2022/08/04 22:11:31;;;;;;;3.63;1.38;;;23.30;63.10;;;;;;5054544;28;20056;-46
2022/08/04 22:14:00;;;;;;;1.83;1.70;;;23.20;63.20;;;;;;5054504;28;20114;-46
2022/08/04 22:16:28;;;;;;;1.70;1.50;;;23.20;63.50;;;;;;5054919;28;20052;-47
2022/08/04 22:18:55;;;;;;;2.55;1.42;;;23.20;63.50;;;;;;5053539;28;20028;-37
2022/08/04 22:21:20;;;;;;;10.32;2.70;;;23.20;63.60;;;;;;5053840;28;20029;-38
2022/08/04 22:23:46;;;;;;;2.85;1.35;;;23.20;63.60;;;;;;5053897;28;20025;-39
2022/08/04 22:26:19;;;;;;;1.80;1.45;;;23.20;63.50;;;;;;5053838;28;20051;-38
2022/08/04 22:28:46;;;;;;;2.70;1.40;;;23.20;63.60;;;;;;5054108;28;20036;-42
2022/08/04 22:31:13;;;;;;;6.47;2.10;;;23.20;63.70;;;;;;5053798;28;20028;-39
2022/08/04 22:33:39;;;;;;;6.20;2.70;;;23.20;63.90;;;;;;5053553;28;20048;-40
2022/08/04 22:36:05;;;;;;;4.68;1.88;;;23.20;63.90;;;;;;5054053;28;20330;-39
2022/08/04 22:38:31;;;;;;;3.45;1.52;;;23.20;63.80;;;;;;5054091;28;20033;-39
2022/08/04 22:40:59;;;;;;;3.15;1.88;;;23.20;63.90;;;;;;5053939;28;20431;-38
2022/08/04 22:43:30;;;;;;;4.10;1.55;;;23.20;64.20;;;;;;5054201;28;20074;-40
2022/08/04 22:45:56;;;;;;;3.03;1.48;;;22.90;64.70;;;;;;5054137;28;20469;-39
2022/08/04 22:48:22;;;;;;;5.18;2.10;;;22.80;65.00;;;;;;5053739;28;20021;-38
2022/08/04 22:50:47;;;;;;;5.22;1.80;;;22.80;64.90;;;;;;5052488;28;20021;-39
2022/08/04 22:53:13;;;;;;;3.40;1.70;;;22.80;65.20;;;;;;5054093;28;20032;-38
2022/08/04 22:55:39;;;;;;;6.00;2.08;;;22.70;65.70;;;;;;5054291;28;20029;-39
2022/08/04 22:58:04;;;;;;;6.45;1.65;;;22.30;67.10;;;;;;5054268;28;20025;-38
2022/08/04 23:00:30;;;;;;;4.30;1.70;;;22.20;68.10;;;;;;5053747;28;20594;-37
2022/08/04 23:02:56;;;;;;;6.35;2.67;;;22.00;68.80;;;;;;5053560;28;20017;-38
2022/08/04 23:05:21;;;;;;;5.10;1.80;;;21.80;70.10;;;;;;5053747;28;20051;-39
2022/08/04 23:07:47;;;;;;;9.15;2.33;;;21.70;71.60;;;;;;5053754;28;20033;-38
2022/08/04 23:10:13;;;;;;;6.28;2.20;;;21.10;73.90;;;;;;5053420;28;20025;-39
2022/08/04 23:12:38;;;;;;;4.07;2.50;;;20.70;76.80;;;;;;5053764;28;20465;-42
2022/08/04 23:15:05;;;;;;;4.55;2.65;;;20.40;78.10;;;;;;5053426;28;20029;-38
2022/08/04 23:17:31;;;;;;;5.32;2.65;;;20.20;79.50;;;;;;5053026;28;20082;-39
2022/08/04 23:19:57;;;;;;;7.32;2.88;;;20.20;80.90;;;;;;5052167;28;20028;-39
2022/08/04 23:22:22;;;;;;;6.22;2.53;;;20.00;80.70;;;;;;5053185;28;20029;-38
2022/08/04 23:24:48;;;;;;;4.97;2.75;;;19.90;82.00;;;;;;5053848;28;20029;-40
2022/08/04 23:27:13;;;;;;;4.35;3.10;;;19.80;82.20;;;;;;5053451;28;20027;-39
2022/08/04 23:29:39;;;;;;;4.45;2.45;;;19.80;82.60;;;;;;5052992;28;20025;-40
2022/08/04 23:32:05;;;;;;;7.93;3.38;;;19.80;83.10;;;;;;5052854;28;20422;-39
2022/08/04 23:34:31;;;;;;;6.78;2.92;;;19.90;84.10;;;;;;5051290;28;20048;-38
2022/08/04 23:36:56;;;;;;;5.88;2.53;;;20.00;83.60;;;;;;5053059;28;20103;-39
2022/08/04 23:39:22;;;;;;;3.25;2.38;;;20.10;82.60;;;;;;5051485;28;20059;-38
2022/08/04 23:41:48;;;;;;;5.05;2.80;;;20.10;82.40;;;;;;5052945;28;20109;-40
2022/08/04 23:44:13;;;;;;;6.43;3.20;;;20.20;81.90;;;;;;5052755;28;20159;-38
2022/08/04 23:46:39;;;;;;;3.17;2.15;;;20.20;81.70;;;;;;5052792;28;20047;-38
2022/08/04 23:49:07;;;;;;;7.45;2.65;;;20.20;82.10;;;;;;5052891;28;20025;-38
2022/08/04 23:51:33;;;;;;;4.65;2.58;;;20.20;82.30;;;;;;5052756;28;20029;-39
2022/08/04 23:53:59;;;;;;;4.43;2.38;;;20.20;82.10;;;;;;5053042;28;20025;-39
2022/08/04 23:56:24;;;;;;;3.42;2.40;;;20.20;81.60;;;;;;5052978;28;20032;-39
2022/08/04 23:58:50;;;;;;;4.15;2.40;;;20.30;81.20;;;;;;5052873;28;20036;-45
